createdAt,value
2023-08-07T00:00:41.366Z,18.82
2023-08-07T00:06:08.620Z,10.76
2023-08-07T00:11:14.221Z,16.27
2023-08-07T00:16:18.508Z,14.51
2023-08-07T00:21:25.813Z,11.15
2023-08-07T00:26:29.272Z,10.04
2023-08-07T00:31:35.182Z,11.85
2023-08-07T00:36:42.597Z,12.26
2023-08-07T00:41:46.238Z,13.78
2023-08-07T00:46:49.806Z,16.66
2023-08-07T00:51:55.131Z,14.42
2023-08-07T00:57:04.771Z,12.31
2023-08-07T01:02:11.812Z,12.25
2023-08-07T01:07:19.069Z,13.31
2023-08-07T01:12:26.757Z,15.73
2023-08-07T01:17:31.742Z,12.92
2023-08-07T01:22:41.326Z,10.20
2023-08-07T01:27:52.476Z,7.06
2023-08-07T01:33:01.484Z,2.88
2023-08-07T01:38:07.525Z,6.02
2023-08-07T01:43:13.392Z,10.80
2023-08-07T01:48:17.025Z,10.02
2023-08-07T01:53:21.854Z,15.55
2023-08-07T01:58:25.341Z,13.05
2023-08-07T02:03:31.282Z,12.39
2023-08-07T02:08:36.121Z,6.63
2023-08-07T02:13:43.679Z,4.35
2023-08-07T02:18:49.538Z,4.00
2023-08-07T02:23:56.663Z,2.64
2023-08-07T02:29:00.083Z,3.66
2023-08-07T02:34:03.518Z,3.26
2023-08-07T02:39:11.612Z,2.84
2023-08-07T02:44:15.090Z,3.28
2023-08-07T02:49:21.089Z,3.08
2023-08-07T02:54:26.196Z,2.97
2023-08-07T02:59:29.630Z,4.80
2023-08-07T03:04:33.173Z,2.91
2023-08-07T03:09:38.142Z,3.38
2023-08-07T03:14:41.672Z,4.10
2023-08-07T03:19:47.700Z,2.68
2023-08-07T03:24:57.604Z,4.92
2023-08-07T03:30:06.186Z,5.78
2023-08-07T03:35:09.890Z,8.56
2023-08-07T03:40:17.664Z,3.37
2023-08-07T03:45:24.484Z,3.00
2023-08-07T03:50:27.947Z,5.64
2023-08-07T03:55:32.831Z,4.10
2023-08-07T04:00:38.716Z,4.44
2023-08-07T04:05:44.558Z,4.80
2023-08-07T04:10:59.907Z,4.45
2023-08-07T04:16:08.618Z,3.60
2023-08-07T04:21:12.601Z,4.75
2023-08-07T04:26:17.453Z,5.24
2023-08-07T04:31:20.971Z,5.01
2023-08-07T04:36:24.641Z,4.61
2023-08-07T04:41:29.366Z,8.48
2023-08-07T04:46:34.365Z,7.20
2023-08-07T04:51:38.103Z,4.45
2023-08-07T04:56:45.617Z,4.60
2023-08-07T05:01:49.291Z,3.49
2023-08-07T05:06:54.868Z,4.06
2023-08-07T05:11:59.665Z,7.74
2023-08-07T05:17:05.698Z,8.25
2023-08-07T05:22:11.624Z,7.67
2023-08-07T05:27:18.775Z,18.98
2023-08-07T05:32:27.180Z,19.93
2023-08-07T05:37:32.705Z,19.10
2023-08-07T05:42:37.532Z,17.95
2023-08-07T05:47:41.015Z,16.38
2023-08-07T05:52:44.587Z,17.98
2023-08-07T05:57:52.241Z,16.33
2023-08-07T06:02:58.310Z,18.63
2023-08-07T06:08:04.507Z,24.55
2023-08-07T06:13:19.969Z,17.72
2023-08-07T06:18:31.041Z,16.06
2023-08-07T06:23:34.721Z,18.46
2023-08-07T06:28:42.015Z,29.41
2023-08-07T06:33:45.555Z,26.46
2023-08-07T06:38:49.461Z,28.58
2023-08-07T06:43:54.312Z,13.84
2023-08-07T06:48:57.964Z,18.68
2023-08-07T06:54:01.515Z,22.46
2023-08-07T06:59:09.102Z,20.38
2023-08-07T07:04:12.661Z,17.77
2023-08-07T07:09:17.528Z,18.46
2023-08-07T07:14:22.675Z,17.89
2023-08-07T07:19:26.201Z,18.22
2023-08-07T07:24:32.190Z,16.14
2023-08-07T07:29:39.374Z,16.63
2023-08-07T07:34:45.294Z,24.22
2023-08-07T07:39:48.725Z,21.11
2023-08-07T07:44:53.659Z,22.83
2023-08-07T07:50:07.728Z,20.28
2023-08-07T07:55:14.874Z,18.54
2023-08-07T08:00:24.298Z,21.73
2023-08-07T08:05:32.062Z,7.34
2023-08-07T08:10:42.592Z,17.38
2023-08-07T08:15:47.905Z,17.40
2023-08-07T08:20:53.908Z,23.38
2023-08-07T08:26:03.501Z,18.14
2023-08-07T08:31:10.081Z,18.84
2023-08-07T08:36:13.660Z,19.86
2023-08-07T08:41:18.508Z,22.20
2023-08-07T08:46:27.067Z,18.32
2023-08-07T08:51:30.702Z,19.33
2023-08-07T08:56:35.149Z,18.83
2023-08-07T09:01:42.682Z,17.19
2023-08-07T09:06:46.372Z,19.91
2023-08-07T09:11:53.278Z,17.57
2023-08-07T09:17:01.617Z,17.32
2023-08-07T09:22:10.029Z,17.97
2023-08-07T09:27:13.862Z,17.54
2023-08-07T09:32:19.962Z,13.97
2023-08-07T09:37:23.429Z,15.94
2023-08-07T09:42:26.903Z,18.13
2023-08-07T09:47:34.073Z,27.05
2023-08-07T09:52:41.660Z,16.43
2023-08-07T09:57:45.886Z,20.51
2023-08-07T10:02:54.022Z,14.83
2023-08-07T10:08:00.108Z,33.26
2023-08-07T10:13:03.686Z,18.83
2023-08-07T10:18:10.864Z,16.98
2023-08-07T10:23:16.597Z,17.41
2023-08-07T10:28:22.770Z,19.28
2023-08-07T10:33:30.898Z,19.62
2023-08-07T10:38:34.589Z,19.80
2023-08-07T10:43:43.386Z,15.46
2023-08-07T10:48:58.571Z,15.81
2023-08-07T10:54:04.013Z,14.66
2023-08-07T10:59:12.905Z,11.60
2023-08-07T11:04:17.739Z,13.08
2023-08-07T11:09:23.478Z,22.76
2023-08-07T11:14:29.987Z,14.43
2023-08-07T11:19:35.038Z,18.09
2023-08-07T11:24:39.906Z,17.75
2023-08-07T11:29:47.783Z,26.01
2023-08-07T11:34:52.915Z,20.04
2023-08-07T11:40:01.765Z,18.68
2023-08-07T11:45:07.011Z,15.41
2023-08-07T11:50:12.306Z,27.74
2023-08-07T11:55:16.504Z,19.96
2023-08-07T12:00:21.568Z,17.14
2023-08-07T12:05:32.545Z,18.69
2023-08-07T12:10:37.198Z,31.69
2023-08-07T12:15:40.709Z,20.27
2023-08-07T12:20:48.016Z,19.98
2023-08-07T12:25:56.402Z,21.79
2023-08-07T12:31:00.032Z,14.90
2023-08-07T12:51:36.746Z,8.24
2023-08-07T12:56:42.581Z,14.75
2023-08-07T13:01:46.145Z,6.59
2023-08-07T13:06:51.791Z,6.99
2023-08-07T13:11:55.274Z,7.95
2023-08-07T13:16:59.574Z,11.09
2023-08-07T13:22:07.428Z,18.19
2023-08-07T13:27:11.233Z,7.83
2023-08-07T13:32:19.586Z,7.90
2023-08-07T13:37:26.743Z,6.39
2023-08-07T13:42:32.400Z,5.97
2023-08-07T13:47:37.018Z,9.28
2023-08-07T13:52:44.236Z,6.26
2023-08-07T13:57:47.734Z,7.12
2023-08-07T14:02:51.347Z,4.96
2023-08-07T14:07:58.690Z,5.39
2023-08-07T14:13:02.230Z,6.90
2023-08-07T14:18:05.663Z,10.16
2023-08-07T14:23:20.885Z,10.78
2023-08-07T14:28:25.130Z,7.89
2023-08-07T14:33:29.721Z,6.97
2023-08-07T14:38:34.541Z,6.37
2023-08-07T14:43:38.058Z,6.76
2023-08-07T14:48:41.555Z,5.11
2023-08-07T14:53:48.676Z,15.84
2023-08-07T14:58:57.072Z,4.06
2023-08-07T15:04:02.954Z,4.41
2023-08-07T15:09:07.938Z,12.58
2023-08-07T15:14:13.493Z,21.86
2023-08-07T15:19:16.922Z,31.56
2023-08-07T15:24:21.979Z,15.00
2023-08-07T15:29:25.534Z,13.76
2023-08-07T15:34:31.150Z,14.30
2023-08-07T15:39:35.976Z,17.22
2023-08-07T15:44:40.480Z,16.47
2023-08-07T15:49:45.689Z,21.98
2023-08-07T15:54:52.798Z,14.92
2023-08-07T15:59:58.667Z,14.91
2023-08-07T16:05:05.722Z,14.38
2023-08-07T16:10:12.716Z,28.46
2023-08-07T16:15:16.200Z,13.75
2023-08-07T16:20:20.234Z,14.12
2023-08-07T16:25:25.133Z,14.85
2023-08-07T16:30:30.954Z,13.51
2023-08-07T16:35:34.505Z,15.09
2023-08-07T16:40:39.847Z,15.93
2023-08-07T16:45:45.780Z,14.42
2023-08-07T16:51:07.477Z,17.82
2023-08-07T16:56:14.317Z,13.67
2023-08-07T17:01:20.805Z,11.34
2023-08-07T17:06:24.424Z,12.58
2023-08-07T17:11:34.040Z,18.40
2023-08-07T17:16:40.703Z,13.56
2023-08-07T17:21:44.336Z,15.65
2023-08-07T17:26:51.876Z,13.69
2023-08-07T17:31:59.092Z,14.59
2023-08-07T17:37:02.708Z,13.33
2023-08-07T17:42:08.209Z,17.09
2023-08-07T17:47:11.681Z,14.68
2023-08-07T17:52:21.218Z,19.27
2023-08-07T17:57:26.920Z,16.33
2023-08-07T18:02:30.526Z,14.38
2023-08-07T18:07:35.029Z,21.60
2023-08-07T18:12:44.747Z,14.27
2023-08-07T18:17:50.490Z,13.24
2023-08-07T18:22:56.084Z,13.95
2023-08-07T18:28:00.942Z,14.99
2023-08-07T18:33:07.008Z,18.10
2023-08-07T18:38:12.907Z,34.96
2023-08-07T18:43:17.889Z,43.18
2023-08-07T18:48:23.704Z,17.79
2023-08-07T18:53:27.248Z,16.38
2023-08-07T18:58:35.317Z,13.99
2023-08-07T19:03:41.359Z,12.84
2023-08-07T19:08:48.151Z,15.45
2023-08-07T19:13:55.369Z,17.86
2023-08-07T19:19:01.468Z,15.60
2023-08-07T19:24:05.148Z,15.62
2023-08-07T19:29:13.667Z,15.99
2023-08-07T19:34:19.467Z,27.01
2023-08-07T19:39:23.876Z,15.85
2023-08-07T19:44:28.751Z,19.55
2023-08-07T19:49:32.308Z,12.50
2023-08-07T19:54:40.372Z,13.33
2023-08-07T19:59:47.489Z,10.47
2023-08-07T20:04:52.666Z,14.12
2023-08-07T20:09:56.320Z,11.86
2023-08-07T20:15:03.233Z,7.56
2023-08-07T20:20:10.705Z,5.38
2023-08-07T20:25:14.243Z,5.60
2023-08-07T20:30:19.148Z,11.89
2023-08-07T20:35:23.036Z,16.31
2023-08-07T20:40:26.944Z,15.04
2023-08-07T20:45:32.000Z,15.72
2023-08-07T20:50:35.612Z,17.69
2023-08-07T20:55:39.197Z,19.63
2023-08-07T21:00:44.264Z,17.52
2023-08-07T21:05:50.930Z,16.70
2023-08-07T21:10:57.276Z,14.90
2023-08-07T21:16:02.553Z,15.59
2023-08-07T21:21:06.364Z,15.11
2023-08-07T21:26:09.856Z,13.51
2023-08-07T21:31:17.803Z,19.59
2023-08-07T21:36:22.134Z,36.47
2023-08-07T21:41:26.619Z,16.42
2023-08-07T21:46:32.251Z,16.48
2023-08-07T21:51:36.160Z,30.65
2023-08-07T21:56:43.431Z,15.16
2023-08-07T22:01:48.478Z,15.07
2023-08-07T22:06:52.029Z,16.64
2023-08-07T22:11:58.232Z,14.26
2023-08-07T22:17:08.640Z,14.12
2023-08-07T22:22:15.310Z,27.24
2023-08-07T22:27:18.827Z,15.37
2023-08-07T22:32:26.121Z,14.01
2023-08-07T22:37:29.843Z,13.87
2023-08-07T22:42:33.532Z,15.04
2023-08-07T22:47:40.814Z,14.06
2023-08-07T22:52:46.788Z,11.40
2023-08-07T22:57:52.686Z,12.43
2023-08-07T23:02:57.913Z,16.35
2023-08-07T23:08:01.519Z,15.12
2023-08-07T23:13:05.085Z,15.74
2023-08-07T23:18:12.423Z,14.31
2023-08-07T23:23:15.970Z,14.31
2023-08-07T23:28:19.571Z,15.61
2023-08-07T23:33:24.356Z,15.36
2023-08-07T23:38:27.864Z,21.28
2023-08-07T23:43:34.299Z,14.12
2023-08-07T23:48:39.999Z,15.86
2023-08-07T23:53:45.885Z,19.17
2023-08-07T23:58:49.576Z,8.65
